createdAt,value
2023-03-21T00:02:11.941Z,11.16
2023-03-21T00:04:50.943Z,11.21
2023-03-21T00:07:19.229Z,11.20
2023-03-21T00:09:46.225Z,11.23
2023-03-21T00:12:14.221Z,11.23
2023-03-21T00:14:41.169Z,11.23
2023-03-21T00:17:10.800Z,11.26
2023-03-21T00:19:38.509Z,11.28
2023-03-21T00:22:08.362Z,11.29
2023-03-21T00:24:36.845Z,11.28
2023-03-21T00:27:26.941Z,11.26
2023-03-21T00:29:51.176Z,11.27
2023-03-21T00:32:20.148Z,11.23
2023-03-21T00:35:01.476Z,11.21
2023-03-21T00:37:33.580Z,11.13
2023-03-21T00:40:01.261Z,11.10
2023-03-21T00:42:28.395Z,11.06
2023-03-21T00:44:55.652Z,10.99
2023-03-21T00:47:25.735Z,10.94
2023-03-21T00:49:52.827Z,10.88
2023-03-21T00:52:27.622Z,10.82
2023-03-21T00:55:07.195Z,10.71
2023-03-21T00:57:39.327Z,10.67
2023-03-21T01:00:10.525Z,10.56
2023-03-21T01:02:38.530Z,10.50
2023-03-21T01:05:06.129Z,10.46
2023-03-21T01:07:33.189Z,10.45
2023-03-21T01:10:00.779Z,10.44
2023-03-21T01:12:28.405Z,10.45
2023-03-21T01:14:56.451Z,10.47
2023-03-21T01:17:23.369Z,10.51
2023-03-21T01:19:51.952Z,10.53
2023-03-21T01:22:21.089Z,10.55
2023-03-21T01:24:55.507Z,10.53
2023-03-21T01:27:27.540Z,10.48
2023-03-21T01:29:54.625Z,10.48
2023-03-21T01:32:21.720Z,10.49
2023-03-21T01:34:49.022Z,10.48
2023-03-21T01:37:17.761Z,10.46
2023-03-21T01:39:47.891Z,10.46
2023-03-21T01:42:15.468Z,10.48
2023-03-21T01:45:01.752Z,10.50
2023-03-21T01:47:39.859Z,10.51
2023-03-21T01:50:22.163Z,10.53
2023-03-21T01:52:58.029Z,10.52
2023-03-21T01:55:28.465Z,10.54
2023-03-21T01:58:11.157Z,10.55
2023-03-21T02:01:03.077Z,10.57
2023-03-21T02:03:50.491Z,10.61
2023-03-21T02:07:03.633Z,10.60
2023-03-21T02:09:42.283Z,10.60
2023-03-21T02:12:16.324Z,10.62
2023-03-21T02:14:48.443Z,10.62
2023-03-21T02:18:17.440Z,10.60
2023-03-21T02:21:21.565Z,10.56
2023-03-21T02:24:18.418Z,10.53
2023-03-21T02:27:03.376Z,10.53
2023-03-21T02:29:58.467Z,10.50
2023-03-21T02:32:43.196Z,10.49
2023-03-21T02:35:51.901Z,10.46
2023-03-21T02:38:40.504Z,10.47
2023-03-21T02:41:39.569Z,10.46
2023-03-21T02:44:19.495Z,10.41
2023-03-21T02:47:05.952Z,10.40
2023-03-21T02:49:43.182Z,10.35
2023-03-21T02:52:35.529Z,10.31
2023-03-21T02:55:13.921Z,10.23
2023-03-21T02:57:50.252Z,10.14
2023-03-21T03:00:21.643Z,10.04
2023-03-21T03:02:54.563Z,9.96
2023-03-21T03:05:28.757Z,9.86
2023-03-21T03:08:43.041Z,9.78
2023-03-21T03:11:37.013Z,9.66
2023-03-21T03:14:46.907Z,9.57
2023-03-21T03:17:31.409Z,9.47
2023-03-21T03:20:16.578Z,9.42
2023-03-21T03:23:03.141Z,9.36
2023-03-21T03:26:12.496Z,9.33
2023-03-21T03:28:50.808Z,9.29
2023-03-21T03:31:26.559Z,9.26
2023-03-21T03:34:07.137Z,9.23
2023-03-21T03:36:47.626Z,9.21
2023-03-21T03:39:17.933Z,9.18
2023-03-21T03:42:25.265Z,9.09
2023-03-21T03:44:59.744Z,9.06
2023-03-21T03:47:57.525Z,9.00
2023-03-21T03:50:38.056Z,8.92
2023-03-21T03:53:36.927Z,8.89
2023-03-21T03:56:07.764Z,8.83
2023-03-21T03:58:45.298Z,8.80
2023-03-21T04:01:15.272Z,8.76
2023-03-21T04:03:50.524Z,8.74
2023-03-21T04:06:20.066Z,8.70
2023-03-21T04:08:50.924Z,8.67
2023-03-21T04:11:18.133Z,8.63
2023-03-21T04:13:49.115Z,8.58
2023-03-21T04:16:23.246Z,8.55
2023-03-21T04:18:50.581Z,8.49
2023-03-21T04:21:19.249Z,8.41
2023-03-21T04:23:46.180Z,8.37
2023-03-21T04:26:13.201Z,8.33
2023-03-21T04:28:52.457Z,8.27
2023-03-21T04:31:27.157Z,8.24
2023-03-21T04:34:09.762Z,8.21
2023-03-21T04:36:39.113Z,8.20
2023-03-21T04:39:12.418Z,8.17
2023-03-21T04:41:42.391Z,8.11
2023-03-21T04:44:11.742Z,8.11
2023-03-21T04:46:40.052Z,8.08
2023-03-21T04:49:08.295Z,8.02
2023-03-21T04:51:37.146Z,8.01
2023-03-21T04:56:36.093Z,7.95
2023-03-21T04:59:12.207Z,7.92
2023-03-21T05:01:41.127Z,7.92
2023-03-21T05:04:09.891Z,7.90
2023-03-21T05:06:39.295Z,7.87
2023-03-21T05:09:06.942Z,7.82
2023-03-21T05:11:37.904Z,7.79
2023-03-21T05:14:08.038Z,7.75
2023-03-21T05:16:38.632Z,7.73
2023-03-21T05:19:05.711Z,7.74
2023-03-21T05:21:41.738Z,7.74
2023-03-21T05:24:18.078Z,7.75
2023-03-21T05:26:52.559Z,7.75
2023-03-21T05:29:23.040Z,7.75
2023-03-21T05:31:59.914Z,7.72
2023-03-21T05:34:28.312Z,7.73
2023-03-21T05:36:56.201Z,7.74
2023-03-21T05:39:25.944Z,7.75
2023-03-21T05:42:02.860Z,7.78
2023-03-21T05:44:30.835Z,7.79
2023-03-21T05:46:59.114Z,7.82
2023-03-21T05:49:40.195Z,7.87
2023-03-21T05:52:09.163Z,7.93
2023-03-21T05:54:36.372Z,7.95
2023-03-21T05:57:05.163Z,8.04
2023-03-21T05:59:51.052Z,8.17
2023-03-21T06:02:19.333Z,8.30
2023-03-21T06:04:50.968Z,8.45
2023-03-21T06:07:21.575Z,8.61
2023-03-21T06:09:49.505Z,8.76
2023-03-21T06:12:16.670Z,8.89
2023-03-21T06:15:02.828Z,9.06
2023-03-21T06:17:49.813Z,9.18
2023-03-21T06:20:17.343Z,9.31
2023-03-21T06:22:49.215Z,9.43
2023-03-21T06:25:16.707Z,9.53
2023-03-21T06:27:44.113Z,9.61
2023-03-21T06:30:11.896Z,9.68
2023-03-21T06:32:46.464Z,9.73
2023-03-21T06:35:17.145Z,9.78
2023-03-21T06:37:45.444Z,9.83
2023-03-21T06:40:13.750Z,9.85
2023-03-21T06:42:41.009Z,9.91
2023-03-21T06:45:11.648Z,9.92
2023-03-21T06:47:38.915Z,9.93
2023-03-21T06:50:12.877Z,9.96
2023-03-21T06:52:42.639Z,10.02
2023-03-21T06:55:10.125Z,10.05
2023-03-21T06:57:37.547Z,10.13
2023-03-21T07:00:06.176Z,10.21
2023-03-21T07:02:34.152Z,10.31
2023-03-21T07:05:07.439Z,10.40
2023-03-21T07:07:34.477Z,10.51
2023-03-21T07:10:01.401Z,10.61
2023-03-21T07:12:35.735Z,10.67
2023-03-21T07:15:16.281Z,10.77
2023-03-21T07:17:44.781Z,10.80
2023-03-21T07:20:12.708Z,10.87
2023-03-21T07:22:39.924Z,10.96
2023-03-21T07:25:08.013Z,11.01
2023-03-21T07:27:41.027Z,11.12
2023-03-21T07:30:10.775Z,11.21
2023-03-21T07:32:38.960Z,11.30
2023-03-21T07:35:13.180Z,11.42
2023-03-21T07:37:41.649Z,11.50
2023-03-21T07:40:12.241Z,11.60
2023-03-21T07:42:41.003Z,11.72
2023-03-21T07:45:12.746Z,11.81
2023-03-21T07:47:39.726Z,11.90
2023-03-21T07:50:07.000Z,11.99
2023-03-21T07:52:34.832Z,12.07
2023-03-21T07:55:01.861Z,12.09
2023-03-21T07:57:28.842Z,12.17
2023-03-21T07:59:56.085Z,12.22
2023-03-21T08:02:23.159Z,12.28
2023-03-21T08:04:50.538Z,12.33
2023-03-21T08:07:17.687Z,12.40
2023-03-21T08:09:44.569Z,12.42
2023-03-21T08:12:11.835Z,12.41
2023-03-21T08:14:39.391Z,12.44
2023-03-21T08:17:07.088Z,12.46
2023-03-21T08:19:34.101Z,12.52
2023-03-21T08:22:01.438Z,12.54
2023-03-21T08:24:29.970Z,12.60
2023-03-21T08:26:57.288Z,12.65
2023-03-21T08:29:25.104Z,12.69
2023-03-21T08:31:52.004Z,12.72
2023-03-21T08:34:19.562Z,12.80
2023-03-21T08:36:47.102Z,12.89
2023-03-21T08:39:14.157Z,13.04
2023-03-21T08:41:41.094Z,13.20
2023-03-21T08:44:09.413Z,13.33
2023-03-21T08:46:36.345Z,13.49
2023-03-21T08:49:03.329Z,13.64
2023-03-21T08:51:31.662Z,13.82
2023-03-21T08:53:59.289Z,13.96
2023-03-21T08:56:26.260Z,14.11
2023-03-21T08:58:53.186Z,14.23
2023-03-21T09:01:20.275Z,14.33
2023-03-21T09:03:47.209Z,14.45
2023-03-21T09:06:14.532Z,14.54
2023-03-21T09:08:42.195Z,14.56
2023-03-21T09:11:10.678Z,14.61
2023-03-21T09:13:37.619Z,14.65
2023-03-21T09:16:05.220Z,14.73
2023-03-21T09:18:49.435Z,14.79
2023-03-21T09:21:18.288Z,14.79
2023-03-21T09:23:46.116Z,14.78
2023-03-21T09:26:13.935Z,14.77
2023-03-21T09:28:41.510Z,14.76
2023-03-21T09:31:12.840Z,14.78
2023-03-21T09:33:41.316Z,14.84
2023-03-21T09:36:13.900Z,14.88
2023-03-21T09:38:43.032Z,14.91
2023-03-21T09:41:36.812Z,14.96
2023-03-21T09:44:29.050Z,15.05
2023-03-21T09:47:25.013Z,15.07
2023-03-21T09:50:20.592Z,15.13
2023-03-21T09:52:59.340Z,15.21
2023-03-21T09:55:36.583Z,15.21
2023-03-21T09:58:44.724Z,15.20
2023-03-21T10:01:28.184Z,15.16
2023-03-21T10:03:57.296Z,15.16
2023-03-21T10:06:30.685Z,15.21
2023-03-21T10:09:07.286Z,15.30
2023-03-21T10:11:48.815Z,15.32
2023-03-21T10:14:28.625Z,15.43
2023-03-21T10:17:16.354Z,15.40
2023-03-21T10:19:46.446Z,15.32
2023-03-21T10:22:13.330Z,15.31
2023-03-21T10:24:40.333Z,15.32
2023-03-21T10:27:07.439Z,15.34
2023-03-21T10:29:43.916Z,15.31
2023-03-21T10:32:15.625Z,15.36
2023-03-21T10:37:24.806Z,15.49
2023-03-21T10:39:54.271Z,15.56
2023-03-21T10:42:32.747Z,15.55
2023-03-21T10:44:59.891Z,15.59
2023-03-21T10:47:36.186Z,15.62
2023-03-21T10:50:10.216Z,15.71
2023-03-21T10:52:46.944Z,15.79
2023-03-21T10:55:34.354Z,15.83
2023-03-21T10:58:13.450Z,15.88
2023-03-21T11:00:43.316Z,15.89
2023-03-21T11:03:39.200Z,15.91
2023-03-21T11:06:23.720Z,15.88
2023-03-21T11:09:25.081Z,15.85
2023-03-21T11:11:54.381Z,15.89
2023-03-21T11:14:37.205Z,15.98
2023-03-21T11:17:19.890Z,16.01
2023-03-21T11:20:05.608Z,16.04
2023-03-21T11:22:43.454Z,16.06
2023-03-21T11:25:27.661Z,16.15
2023-03-21T11:27:56.226Z,16.25
2023-03-21T11:30:26.677Z,16.40
2023-03-21T11:33:01.599Z,16.51
2023-03-21T11:35:38.509Z,16.60
2023-03-21T11:38:24.325Z,16.61
2023-03-21T11:40:59.572Z,16.68
2023-03-21T11:43:35.352Z,16.69
2023-03-21T11:46:06.829Z,16.69
2023-03-21T11:48:41.968Z,16.72
2023-03-21T11:51:32.970Z,16.77
2023-03-21T11:54:29.579Z,16.80
2023-03-21T11:57:24.881Z,16.86
2023-03-21T12:00:26.137Z,17.00
2023-03-21T12:03:38.194Z,17.10
2023-03-21T12:06:26.459Z,17.21
2023-03-21T12:09:25.125Z,17.33
2023-03-21T12:12:13.327Z,17.33
2023-03-21T12:15:01.494Z,17.43
2023-03-21T12:18:06.941Z,17.85
2023-03-21T12:20:52.652Z,18.55
2023-03-21T12:23:39.151Z,19.47
2023-03-21T12:26:40.685Z,20.64
2023-03-21T12:29:47.912Z,21.91
2023-03-21T12:32:45.581Z,22.68
2023-03-21T12:36:05.511Z,22.95
2023-03-21T12:39:29.847Z,23.59
2023-03-21T12:42:23.705Z,24.71
2023-03-21T12:45:21.341Z,25.80
2023-03-21T12:48:00.589Z,26.63
2023-03-21T12:50:37.492Z,27.30
2023-03-21T12:53:45.278Z,28.14
2023-03-21T12:56:28.642Z,28.76
2023-03-21T12:59:08.808Z,29.38
2023-03-21T13:01:38.899Z,29.86
2023-03-21T13:04:36.719Z,30.05
2023-03-21T13:07:08.159Z,30.12
2023-03-21T13:09:39.961Z,30.00
2023-03-21T13:12:32.914Z,29.52
2023-03-21T13:15:23.687Z,29.11
2023-03-21T13:18:20.919Z,28.37
2023-03-21T13:20:54.665Z,27.92
2023-03-21T13:23:25.241Z,27.72
2023-03-21T13:25:55.767Z,27.56
2023-03-21T13:28:29.496Z,27.30
2023-03-21T13:31:25.921Z,26.71
2023-03-21T13:33:59.001Z,26.13
2023-03-21T13:36:31.092Z,25.67
2023-03-21T13:39:05.919Z,25.28
2023-03-21T13:41:38.987Z,24.83
2023-03-21T13:44:20.975Z,24.38
2023-03-21T13:47:00.188Z,23.93
2023-03-21T13:49:32.297Z,23.53
2023-03-21T13:52:02.318Z,23.15
2023-03-21T13:54:55.978Z,23.01
2023-03-21T13:57:40.819Z,23.55
2023-03-21T14:00:30.221Z,24.67
2023-03-21T14:03:10.485Z,25.96
2023-03-21T14:05:39.197Z,26.97
2023-03-21T14:08:17.255Z,27.64
2023-03-21T14:10:56.973Z,27.86
2023-03-21T14:13:28.424Z,27.68
2023-03-21T14:16:06.615Z,27.23
2023-03-21T14:19:00.100Z,26.64
2023-03-21T14:21:31.336Z,26.06
2023-03-21T14:24:07.418Z,25.54
2023-03-21T14:26:44.389Z,24.94
2023-03-21T14:29:33.532Z,24.37
2023-03-21T14:32:02.154Z,23.92
2023-03-21T14:34:34.064Z,23.50
2023-03-21T14:37:01.186Z,23.14
2023-03-21T14:39:31.650Z,22.78
2023-03-21T14:42:06.469Z,22.43
2023-03-21T14:44:54.841Z,22.10
2023-03-21T14:47:28.613Z,21.78
2023-03-21T14:49:57.034Z,21.50
2023-03-21T14:52:31.003Z,21.25
2023-03-21T14:54:58.656Z,21.03
2023-03-21T14:57:31.354Z,20.83
2023-03-21T15:00:14.494Z,20.69
2023-03-21T15:02:43.287Z,20.52
2023-03-21T15:05:33.110Z,20.31
2023-03-21T15:08:09.185Z,20.13
2023-03-21T15:10:37.841Z,19.99
2023-03-21T15:13:21.129Z,19.82
2023-03-21T15:15:48.833Z,19.71
2023-03-21T15:18:23.462Z,19.58
2023-03-21T15:20:51.492Z,19.50
2023-03-21T15:23:42.625Z,19.42
2023-03-21T15:26:18.946Z,19.36
2023-03-21T15:28:50.488Z,19.33
2023-03-21T15:31:29.923Z,19.30
2023-03-21T15:33:57.042Z,19.32
2023-03-21T15:36:35.889Z,19.30
2023-03-21T15:39:08.833Z,19.30
2023-03-21T15:41:35.824Z,19.31
2023-03-21T15:44:13.568Z,19.33
2023-03-21T15:46:44.784Z,19.47
2023-03-21T15:53:19.823Z,19.81
2023-03-21T15:55:53.615Z,19.86
2023-03-21T15:58:24.858Z,19.88
2023-03-21T16:00:57.976Z,19.90
2023-03-21T16:03:37.513Z,19.90
2023-03-21T16:06:15.396Z,19.90
2023-03-21T16:08:52.295Z,19.90
2023-03-21T16:11:28.893Z,19.89
2023-03-21T16:13:57.075Z,19.89
2023-03-21T16:16:30.104Z,19.89
2023-03-21T16:18:59.767Z,19.88
2023-03-21T16:21:31.543Z,19.86
2023-03-21T16:23:58.957Z,19.86
2023-03-21T16:26:30.450Z,19.84
2023-03-21T16:28:58.392Z,19.83
2023-03-21T16:31:32.945Z,19.81
2023-03-21T16:34:01.634Z,19.80
2023-03-21T16:36:36.696Z,19.80
2023-03-21T16:39:20.362Z,19.78
2023-03-21T16:41:48.275Z,19.77
2023-03-21T16:44:15.632Z,19.77
2023-03-21T16:46:42.930Z,19.75
2023-03-21T16:49:25.835Z,19.73
2023-03-21T16:51:57.403Z,19.71
2023-03-21T16:54:24.556Z,19.71
2023-03-21T16:56:54.994Z,19.71
2023-03-21T16:59:22.529Z,19.70
2023-03-21T17:01:50.173Z,19.68
2023-03-21T17:04:19.322Z,19.67
2023-03-21T17:06:53.085Z,19.66
2023-03-21T17:09:26.227Z,19.65
2023-03-21T17:11:54.450Z,19.65
2023-03-21T17:14:22.158Z,19.63
2023-03-21T17:16:49.618Z,19.61
2023-03-21T17:19:21.963Z,19.60
2023-03-21T17:21:49.139Z,19.59
2023-03-21T17:24:16.826Z,19.58
2023-03-21T17:26:44.225Z,19.58
2023-03-21T17:29:15.339Z,19.57
2023-03-21T17:31:43.987Z,19.56
2023-03-21T17:34:11.196Z,19.55
2023-03-21T17:36:41.240Z,19.52
2023-03-21T17:39:15.841Z,19.52
2023-03-21T17:41:42.982Z,19.51
2023-03-21T17:44:10.912Z,19.50
2023-03-21T17:46:38.115Z,19.48
2023-03-21T17:49:06.333Z,19.48
2023-03-21T17:51:34.056Z,19.48
2023-03-21T17:54:01.549Z,19.45
2023-03-21T17:56:31.786Z,19.44
2023-03-21T17:59:02.526Z,19.43
2023-03-21T18:01:30.965Z,19.43
2023-03-21T18:04:02.136Z,19.41
2023-03-21T18:06:29.667Z,19.41
2023-03-21T18:08:56.709Z,19.39
2023-03-21T18:11:25.322Z,19.40
2023-03-21T18:14:06.548Z,19.38
2023-03-21T18:16:37.358Z,19.36
2023-03-21T18:19:05.060Z,19.35
2023-03-21T18:21:33.040Z,19.34
2023-03-21T18:24:00.634Z,19.34
2023-03-21T18:26:27.779Z,19.33
2023-03-21T18:29:53.309Z,19.32
2023-03-21T18:31:47.003Z,19.30
2023-03-21T18:34:19.002Z,19.30
2023-03-21T18:36:49.135Z,19.29
2023-03-21T18:39:17.566Z,19.29
2023-03-21T18:41:44.908Z,19.28
2023-03-21T18:44:19.582Z,19.27
2023-03-21T18:46:50.239Z,19.26
2023-03-21T18:52:05.461Z,19.23
2023-03-21T18:54:33.142Z,19.22
2023-03-21T18:59:47.934Z,19.20
2023-03-21T19:02:15.975Z,19.19
2023-03-21T19:04:43.617Z,19.19
2023-03-21T19:07:11.078Z,19.17
2023-03-21T19:10:01.491Z,19.16
2023-03-21T19:12:27.950Z,19.16
2023-03-21T19:14:55.600Z,19.15
2023-03-21T19:18:21.830Z,19.14
2023-03-21T19:20:14.048Z,19.13
2023-03-21T19:22:42.096Z,19.13
2023-03-21T19:25:10.443Z,19.11
2023-03-21T19:27:39.155Z,19.09
2023-03-21T19:30:15.441Z,19.09
2023-03-21T19:32:44.373Z,19.08
2023-03-21T19:35:13.377Z,19.08
2023-03-21T19:37:41.337Z,19.07
2023-03-21T19:40:10.214Z,19.07
2023-03-21T19:42:37.381Z,19.05
2023-03-21T19:45:05.643Z,19.05
2023-03-21T19:47:32.971Z,19.04
2023-03-21T19:50:47.225Z,19.03
2023-03-21T19:52:48.166Z,19.02
2023-03-21T19:55:15.435Z,19.01
2023-03-21T19:57:42.491Z,19.00
2023-03-21T20:00:11.459Z,18.99
2023-03-21T20:02:39.617Z,19.00
2023-03-21T20:05:07.772Z,18.98
2023-03-21T20:07:35.211Z,18.97
2023-03-21T20:10:02.478Z,18.97
2023-03-21T20:12:30.614Z,18.95
2023-03-21T20:15:10.354Z,18.96
2023-03-21T20:17:44.061Z,18.94
2023-03-21T20:20:15.365Z,18.93
2023-03-21T20:23:05.581Z,18.93
2023-03-21T20:25:33.236Z,18.93
2023-03-21T20:28:15.248Z,18.91
2023-03-21T20:30:54.001Z,18.90
2023-03-21T20:33:21.739Z,18.89
2023-03-21T20:38:37.352Z,18.87
2023-03-21T20:41:07.358Z,18.86
2023-03-21T20:46:22.873Z,18.84
2023-03-21T20:48:50.767Z,18.84
2023-03-21T20:52:24.239Z,18.82
2023-03-21T20:54:06.027Z,18.83
2023-03-21T20:56:33.561Z,18.82
2023-03-21T20:59:15.719Z,18.82
2023-03-21T21:01:45.381Z,18.79
2023-03-21T21:04:15.119Z,18.79
2023-03-21T21:06:43.765Z,18.78
2023-03-21T21:09:10.862Z,18.78
2023-03-21T21:14:25.561Z,18.78
2023-03-21T21:16:52.747Z,18.77
2023-03-21T21:19:21.672Z,18.75
2023-03-21T21:21:49.822Z,18.75
2023-03-21T21:24:16.885Z,18.75
2023-03-21T21:26:46.461Z,18.74
2023-03-21T21:29:17.934Z,18.73
2023-03-21T21:31:48.744Z,18.73
2023-03-21T21:34:18.918Z,18.72
2023-03-21T21:36:46.864Z,18.72
2023-03-21T21:39:17.355Z,18.71
2023-03-21T21:41:44.446Z,18.71
2023-03-21T21:44:11.477Z,18.70
2023-03-21T21:46:39.014Z,18.69
2023-03-21T21:49:06.631Z,18.68
2023-03-21T21:51:34.609Z,18.67
2023-03-21T21:54:03.921Z,18.67
2023-03-21T21:56:34.231Z,18.67
2023-03-21T21:59:02.182Z,18.65
2023-03-21T22:01:31.065Z,18.67
2023-03-21T22:04:06.143Z,18.65
2023-03-21T22:06:37.088Z,18.63
2023-03-21T22:09:05.449Z,18.63
2023-03-21T22:11:33.016Z,18.64
2023-03-21T22:14:00.092Z,18.63
2023-03-21T22:16:27.380Z,18.62
2023-03-21T22:18:54.973Z,18.61
2023-03-21T22:21:22.219Z,18.61
2023-03-21T22:23:49.375Z,18.59
2023-03-21T22:26:17.168Z,18.60
2023-03-21T22:28:44.318Z,18.60
2023-03-21T22:31:15.566Z,18.57
2023-03-21T22:33:44.196Z,18.58
2023-03-21T22:36:12.005Z,18.56
2023-03-21T22:38:41.793Z,18.56
2023-03-21T22:41:09.114Z,18.55
2023-03-21T22:43:36.174Z,18.54
2023-03-21T22:46:05.401Z,18.53
2023-03-21T22:48:33.213Z,18.53
2023-03-21T22:51:00.991Z,18.53
2023-03-21T22:53:28.876Z,18.53
2023-03-21T22:55:56.316Z,18.51
2023-03-21T22:58:24.015Z,18.50
2023-03-21T23:00:51.230Z,18.50
2023-03-21T23:03:18.943Z,18.49
2023-03-21T23:05:46.403Z,18.47
2023-03-21T23:08:14.232Z,18.49
2023-03-21T23:10:43.747Z,18.48
2023-03-21T23:13:12.106Z,18.47
2023-03-21T23:15:40.035Z,18.46
2023-03-21T23:18:07.471Z,18.46
2023-03-21T23:20:34.796Z,18.46
2023-03-21T23:23:02.442Z,18.45
2023-03-21T23:25:30.294Z,18.44
2023-03-21T23:27:57.333Z,18.44
2023-03-21T23:30:24.538Z,18.43
2023-03-21T23:32:52.157Z,18.42
2023-03-21T23:35:19.413Z,18.42
2023-03-21T23:37:51.934Z,18.42
2023-03-21T23:40:21.098Z,18.40
2023-03-21T23:42:48.243Z,18.39
2023-03-21T23:45:15.602Z,18.39
2023-03-21T23:47:43.039Z,18.39
2023-03-21T23:50:11.093Z,18.36
2023-03-21T23:52:41.394Z,18.38
2023-03-21T23:55:09.395Z,18.36
2023-03-21T23:57:38.157Z,18.36
